Baltimore, Maryland
Traffic Map
Current Weather Conditions
Baltimore, Maryland
Broken Clouds
Broken Clouds
45°
Feels Like: 45°
Wind Chill: 45° Ceiling: 25000
Heat Index: 45° Visibility: 10mi
Dew Point: 44° Wind: 0mph
Humidity: 97% Direction: ° ()
Pressure: 29.9in Gusts: 0mph
Raw Report DataKBWI 230454Z 00000KT 10SM FEW080 SCT160 BKN250 07/07 A2990 RMK AO2 SLP125 T00720067 401670061
Traffic Incident Summary
Active as of:
Severity:
Category:
InformationThere was an issue retrieving the traffic information for this location. Please try a different location or try again shortly.
Advertisements
Track Severe Weather on mobile